Time;durP1;ratioP1;P1;durP2;ratioP2;P2;SDS_P1;SDS_P2;PMS_P1;PMS_P2;Temp;Humidity;BMP_temperature;BMP_pressure;BME280_temperature;BME280_humidity;BME280_pressure;Samples;Min_cycle;Max_cycle;Signal;HPM_P1;HPM_P2
2024/01/19 00:01:19;;;;;;;27.90;10.20;;;-2.50;99.90;;;;;;5036670;28;20501;-54
2024/01/19 00:03:45;;;;;;;26.23;10.50;;;-2.40;99.90;;;;;;5036525;28;20026;-56
2024/01/19 00:06:11;;;;;;;27.60;10.70;;;-2.40;99.90;;;;;;5037544;28;20607;-53
2024/01/19 00:08:37;;;;;;;29.53;10.30;;;-2.50;99.90;;;;;;5036846;28;20543;-55
2024/01/19 00:11:02;;;;;;;35.47;11.87;;;-2.40;99.90;;;;;;5036345;28;20036;-53
2024/01/19 00:13:28;;;;;;;26.67;11.10;;;-2.30;99.90;;;;;;5036424;28;20056;-54
2024/01/19 00:15:55;;;;;;;34.37;11.90;;;-2.30;99.90;;;;;;5036364;28;20035;-53
2024/01/19 00:18:22;;;;;;;33.80;11.60;;;-2.30;99.90;;;;;;5036122;28;20030;-56
2024/01/19 00:20:48;;;;;;;37.80;13.47;;;-2.30;99.90;;;;;;5035763;28;20586;-51
2024/01/19 00:23:14;;;;;;;42.60;13.37;;;-2.30;99.90;;;;;;5034748;28;20498;-54
2024/01/19 00:25:40;;;;;;;36.97;12.73;;;-2.20;99.90;;;;;;5035528;28;20037;-56
2024/01/19 00:28:06;;;;;;;38.00;12.90;;;-2.20;99.90;;;;;;5034416;28;20147;-56
2024/01/19 00:30:32;;;;;;;35.77;12.30;;;-2.20;99.90;;;;;;5036217;28;20580;-55
2024/01/19 00:32:57;;;;;;;33.20;12.47;;;-2.30;99.90;;;;;;5036122;28;20033;-51
2024/01/19 00:35:23;;;;;;;34.87;12.13;;;-2.20;99.90;;;;;;5035754;28;20095;-56
2024/01/19 00:37:49;;;;;;;39.90;13.17;;;-2.30;99.90;;;;;;5036463;28;20025;-55
2024/01/19 00:40:14;;;;;;;34.80;12.93;;;-2.30;99.90;;;;;;5035741;28;20033;-53
2024/01/19 00:42:41;;;;;;;42.03;12.53;;;-2.30;99.90;;;;;;5035784;28;20471;-53
2024/01/19 00:45:07;;;;;;;35.37;12.07;;;-2.40;99.90;;;;;;5035855;28;20033;-55
2024/01/19 00:47:36;;;;;;;24.87;10.07;;;-2.40;99.90;;;;;;5035612;28;20420;-54
2024/01/19 00:50:04;;;;;;;23.55;9.10;;;-2.50;99.90;;;;;;5035612;28;20506;-56
2024/01/19 00:52:30;;;;;;;39.73;12.93;;;-2.50;99.90;;;;;;5035631;28;20037;-56
2024/01/19 00:54:56;;;;;;;32.97;11.87;;;-2.50;99.90;;;;;;5035438;28;20912;-53
2024/01/19 00:57:22;;;;;;;32.00;12.57;;;-2.50;99.90;;;;;;5034056;28;20037;-56
2024/01/19 00:59:48;;;;;;;43.40;12.50;;;-2.60;99.90;;;;;;5035409;28;20448;-53
2024/01/19 01:02:13;;;;;;;33.17;12.10;;;-2.50;99.90;;;;;;5035608;28;20041;-55
2024/01/19 01:04:39;;;;;;;18.57;7.60;;;-2.50;99.90;;;;;;5035017;28;20045;-53
2024/01/19 01:07:05;;;;;;;29.43;11.07;;;-2.50;99.90;;;;;;5035222;28;20040;-56
2024/01/19 01:09:30;;;;;;;29.90;10.40;;;-2.50;99.90;;;;;;5035268;28;20025;-57
2024/01/19 01:11:57;;;;;;;27.20;10.47;;;-2.50;99.90;;;;;;5033776;28;20120;-55
2024/01/19 01:14:22;;;;;;;27.53;10.23;;;-2.60;99.90;;;;;;5034140;28;20029;-53
2024/01/19 01:16:48;;;;;;;22.43;9.90;;;-2.60;99.90;;;;;;5035222;28;20428;-54
2024/01/19 01:19:13;;;;;;;16.63;7.60;;;-2.70;99.90;;;;;;5035177;28;20063;-52
2024/01/19 01:21:39;;;;;;;24.77;9.63;;;-2.70;99.90;;;;;;5035196;28;20479;-55
2024/01/19 01:24:05;;;;;;;21.47;9.37;;;-2.80;99.90;;;;;;5033974;28;20085;-54
2024/01/19 01:26:30;;;;;;;32.23;10.07;;;-2.80;99.90;;;;;;5034013;28;20082;-56
2024/01/19 01:28:56;;;;;;;27.23;10.87;;;-2.80;99.90;;;;;;5035118;28;20053;-51
2024/01/19 01:31:22;;;;;;;26.67;10.30;;;-2.90;99.90;;;;;;5034781;28;20025;-53
2024/01/19 01:33:48;;;;;;;31.37;9.93;;;-2.80;99.90;;;;;;5035042;28;20033;-51
2024/01/19 01:36:14;;;;;;;22.87;10.57;;;-2.80;99.90;;;;;;5034979;28;20442;-53
2024/01/19 01:38:40;;;;;;;29.70;11.00;;;-2.80;99.90;;;;;;5035012;28;20065;-57
2024/01/19 01:41:05;;;;;;;33.60;10.00;;;-2.80;99.90;;;;;;5034692;28;20499;-52
2024/01/19 01:43:31;;;;;;;23.83;10.03;;;-2.80;99.90;;;;;;5034942;28;20022;-53
2024/01/19 01:45:57;;;;;;;31.03;11.57;;;-2.80;99.90;;;;;;5034374;28;20490;-55
2024/01/19 01:48:24;;;;;;;29.40;10.40;;;-2.80;99.90;;;;;;5034781;28;20057;-55
2024/01/19 01:50:50;;;;;;;32.47;11.93;;;-2.70;99.90;;;;;;5016304;28;20509;-54
2024/01/19 01:53:18;;;;;;;30.93;11.67;;;-2.80;99.90;;;;;;5033128;28;20457;-55
2024/01/19 01:55:45;;;;;;;27.07;10.30;;;-2.90;99.90;;;;;;5034551;28;20451;-54
2024/01/19 01:58:12;;;;;;;35.70;11.43;;;-2.90;99.90;;;;;;5034849;28;20493;-55
2024/01/19 02:00:38;;;;;;;32.13;11.57;;;-2.80;99.90;;;;;;5034638;28;20525;-54
2024/01/19 02:03:05;;;;;;;36.10;10.73;;;-2.80;99.90;;;;;;5033245;28;20544;-53
2024/01/19 02:05:31;;;;;;;33.40;11.90;;;-2.80;99.90;;;;;;5034260;28;20104;-55
2024/01/19 02:07:57;;;;;;;36.13;12.10;;;-2.80;99.90;;;;;;5033945;28;20517;-52
2024/01/19 02:10:22;;;;;;;32.90;10.73;;;-2.80;99.90;;;;;;5034355;28;20447;-51
2024/01/19 02:12:48;;;;;;;28.40;10.10;;;-2.80;99.90;;;;;;5034516;28;20127;-53
2024/01/19 02:15:21;;;;;;;35.63;11.97;;;-2.70;99.90;;;;;;5034343;28;20108;-54
2024/01/19 02:17:49;;;;;;;38.00;11.60;;;-2.60;99.90;;;;;;5034382;28;20371;-54
2024/01/19 02:20:15;;;;;;;33.23;10.97;;;-2.60;99.90;;;;;;5034173;28;20543;-54
2024/01/19 02:22:43;;;;;;;33.07;10.93;;;-2.60;99.90;;;;;;5034297;28;20459;-55
2024/01/19 02:25:09;;;;;;;34.10;10.87;;;-2.60;99.90;;;;;;5034186;28;20452;-54
2024/01/19 02:27:35;;;;;;;32.97;11.43;;;-2.60;99.90;;;;;;5035574;28;20839;-54
2024/01/19 02:30:01;;;;;;;39.43;12.00;;;-2.60;99.90;;;;;;5033831;28;20456;-55
2024/01/19 02:32:27;;;;;;;33.23;10.27;;;-2.60;99.90;;;;;;5034317;28;20536;-52
2024/01/19 02:34:53;;;;;;;37.27;11.23;;;-2.60;99.90;;;;;;5034647;28;20766;-52
2024/01/19 02:37:20;;;;;;;34.13;11.33;;;-2.50;99.90;;;;;;5033945;28;20435;-54
2024/01/19 02:39:46;;;;;;;38.03;11.67;;;-2.50;99.90;;;;;;5034414;28;20060;-54
2024/01/19 02:42:11;;;;;;;32.90;11.17;;;-2.50;99.90;;;;;;5033483;28;20495;-52
2024/01/19 02:44:37;;;;;;;39.70;11.17;;;-2.60;99.90;;;;;;5034105;28;20033;-53
2024/01/19 02:47:03;;;;;;;31.43;11.30;;;-2.50;99.90;;;;;;5034478;28;20053;-54
2024/01/19 02:49:29;;;;;;;40.67;11.37;;;-2.40;99.90;;;;;;5036629;28;20470;-55
2024/01/19 02:51:55;;;;;;;34.97;10.87;;;-2.40;99.90;;;;;;5037580;28;20033;-53
2024/01/19 02:54:20;;;;;;;42.00;11.17;;;-2.40;99.90;;;;;;5037882;28;20436;-53
2024/01/19 02:56:46;;;;;;;31.87;10.27;;;-2.30;99.90;;;;;;5036303;28;20132;-51
2024/01/19 02:59:11;;;;;;;38.40;11.70;;;-2.30;99.90;;;;;;5037615;28;20060;-52
2024/01/19 03:01:37;;;;;;;37.47;11.53;;;-2.30;99.90;;;;;;5037169;28;20474;-52
2024/01/19 03:04:03;;;;;;;39.07;12.17;;;-2.20;99.90;;;;;;5037223;28;20029;-51
2024/01/19 03:06:29;;;;;;;36.27;11.53;;;-2.20;99.90;;;;;;5037520;28;20037;-55
2024/01/19 03:08:55;;;;;;;38.43;9.83;;;-2.20;99.90;;;;;;5035736;28;20442;-52
2024/01/19 03:11:20;;;;;;;39.70;10.50;;;-2.20;99.90;;;;;;5037435;28;20083;-52
2024/01/19 03:13:46;;;;;;;38.73;11.27;;;-2.00;99.90;;;;;;5037151;28;20026;-53
2024/01/19 03:16:11;;;;;;;44.63;10.97;;;-2.00;99.90;;;;;;5035715;28;20478;-54
2024/01/19 03:18:37;;;;;;;39.33;11.10;;;-2.10;99.90;;;;;;5037046;28;20033;-55
2024/01/19 03:21:03;;;;;;;44.07;11.60;;;-2.10;99.90;;;;;;5035343;28;20033;-56
2024/01/19 03:23:28;;;;;;;45.17;12.60;;;-2.00;99.90;;;;;;5035357;28;20386;-53
2024/01/19 03:25:54;;;;;;;40.43;10.57;;;-2.00;99.90;;;;;;5036954;28;20025;-54
2024/01/19 03:28:20;;;;;;;42.10;12.67;;;-2.00;99.90;;;;;;5035438;28;20041;-55
2024/01/19 03:30:45;;;;;;;44.57;12.30;;;-1.90;99.90;;;;;;5036865;28;20036;-51
2024/01/19 03:33:11;;;;;;;37.53;11.33;;;-1.80;99.90;;;;;;5036817;28;20037;-54
2024/01/19 03:35:36;;;;;;;45.93;12.03;;;-1.80;99.90;;;;;;5036915;28;20029;-56
2024/01/19 03:38:02;;;;;;;41.30;12.37;;;-1.80;99.90;;;;;;5037230;28;20390;-54
2024/01/19 03:40:28;;;;;;;45.70;12.43;;;-1.70;99.90;;;;;;5036125;28;20036;-56
2024/01/19 03:42:53;;;;;;;43.63;11.43;;;-1.70;99.90;;;;;;5036818;28;20030;-52
2024/01/19 03:45:19;;;;;;;41.97;11.10;;;-1.60;99.90;;;;;;5036976;28;20025;-55
2024/01/19 03:47:45;;;;;;;41.80;11.23;;;-1.60;99.90;;;;;;5036577;28;20057;-51
2024/01/19 03:50:10;;;;;;;43.97;11.10;;;-1.60;99.90;;;;;;5036213;28;20092;-56
2024/01/19 03:52:37;;;;;;;42.77;11.83;;;-1.60;99.90;;;;;;5036410;28;20040;-52
2024/01/19 03:55:05;;;;;;;38.83;11.47;;;-1.60;99.90;;;;;;5036296;28;20115;-53
2024/01/19 03:57:31;;;;;;;36.30;12.17;;;-1.60;99.90;;;;;;5036314;28;20486;-54
2024/01/19 03:59:57;;;;;;;42.37;11.90;;;-1.50;99.90;;;;;;5035059;28;20061;-53
2024/01/19 04:02:22;;;;;;;49.10;11.53;;;-1.50;99.90;;;;;;5035919;28;20025;-54
2024/01/19 04:04:48;;;;;;;32.70;11.60;;;-1.40;99.90;;;;;;5036184;28;20036;-55
2024/01/19 04:07:14;;;;;;;41.40;11.43;;;-1.40;99.90;;;;;;5036447;28;20124;-54
2024/01/19 04:09:40;;;;;;;41.27;11.67;;;-1.40;99.90;;;;;;5036156;28;20033;-54
2024/01/19 04:12:17;;;;;;;34.87;11.17;;;-1.30;99.90;;;;;;5036505;28;20440;-57
2024/01/19 04:14:44;;;;;;;50.63;12.47;;;-1.30;99.90;;;;;;5036186;28;20523;-54
2024/01/19 04:17:10;;;;;;;43.40;11.90;;;-1.30;99.90;;;;;;5035753;28;20431;-54
2024/01/19 04:19:37;;;;;;;42.07;12.47;;;-1.40;99.90;;;;;;5036695;28;20443;-50
2024/01/19 04:22:04;;;;;;;42.83;10.97;;;-1.40;99.90;;;;;;5036123;28;20041;-53
2024/01/19 04:24:29;;;;;;;47.37;11.43;;;-1.40;99.90;;;;;;5036047;28;20087;-53
2024/01/19 04:26:56;;;;;;;41.60;12.03;;;-1.30;99.90;;;;;;5036122;28;20132;-52
2024/01/19 04:29:22;;;;;;;44.17;11.17;;;-1.30;99.90;;;;;;5035414;28;20065;-53
2024/01/19 04:31:48;;;;;;;49.80;14.20;;;-1.30;99.90;;;;;;5035846;28;20034;-54
2024/01/19 04:34:13;;;;;;;38.20;11.53;;;-1.30;99.90;;;;;;5036072;28;20065;-54
2024/01/19 04:36:39;;;;;;;31.50;9.47;;;-1.20;99.90;;;;;;5036219;28;20087;-55
2024/01/19 04:39:05;;;;;;;50.60;11.67;;;-1.10;99.90;;;;;;5035341;28;20033;-55
2024/01/19 04:41:32;;;;;;;41.77;11.20;;;-1.10;99.90;;;;;;5035745;28;20398;-52
2024/01/19 04:43:58;;;;;;;33.90;10.77;;;-1.10;99.90;;;;;;5035689;28;20030;-54
2024/01/19 04:46:23;;;;;;;38.80;12.37;;;-1.10;99.90;;;;;;5035475;28;20538;-56
2024/01/19 04:48:49;;;;;;;38.60;11.60;;;-1.20;99.90;;;;;;5034877;28;20036;-51
2024/01/19 04:51:15;;;;;;;42.13;11.20;;;-1.20;99.90;;;;;;5035477;28;20026;-53
2024/01/19 04:53:40;;;;;;;44.03;12.37;;;-1.10;99.90;;;;;;5035630;28;20038;-55
2024/01/19 04:56:06;;;;;;;39.03;11.47;;;-1.00;99.90;;;;;;5035789;28;20032;-55
2024/01/19 04:58:36;;;;;;;45.57;11.00;;;-1.00;99.90;;;;;;5035245;28;20029;-53
2024/01/19 05:01:03;;;;;;;46.20;11.20;;;-1.10;99.90;;;;;;5035243;28;20036;-52
2024/01/19 05:03:32;;;;;;;35.97;10.37;;;-1.10;99.90;;;;;;5035434;28;20436;-52
2024/01/19 05:05:57;;;;;;;46.30;11.18;;;-1.00;99.90;;;;;;5034686;28;20083;-55
2024/01/19 05:08:23;;;;;;;38.83;11.00;;;-1.00;99.90;;;;;;5035626;28;20029;-51
2024/01/19 05:10:49;;;;;;;40.77;11.67;;;-1.00;99.90;;;;;;5034583;28;20029;-53
2024/01/19 05:13:15;;;;;;;35.73;11.43;;;-1.00;99.90;;;;;;5034987;28;20040;-54
2024/01/19 05:15:42;;;;;;;39.13;12.17;;;-1.00;99.90;;;;;;5035169;28;20041;-53
2024/01/19 05:18:07;;;;;;;44.80;11.37;;;-1.00;99.90;;;;;;5033924;28;20490;-50
2024/01/19 05:20:33;;;;;;;45.17;13.10;;;-0.90;99.90;;;;;;5034748;28;20052;-54
2024/01/19 05:22:58;;;;;;;46.03;13.33;;;-0.90;99.90;;;;;;5034197;28;20029;-51
2024/01/19 05:25:24;;;;;;;46.93;12.93;;;-0.90;99.90;;;;;;5034690;28;20045;-51
2024/01/19 05:27:53;;;;;;;44.20;11.50;;;-0.90;99.90;;;;;;5034607;28;20017;-51
2024/01/19 05:30:20;;;;;;;42.00;11.65;;;-0.90;99.90;;;;;;5034719;28;20017;-55
2024/01/19 05:32:45;;;;;;;37.93;11.70;;;-0.90;99.90;;;;;;5034567;28;20068;-51
2024/01/19 05:35:11;;;;;;;42.27;12.13;;;-0.90;99.90;;;;;;5034919;28;20030;-52
2024/01/19 05:37:37;;;;;;;49.00;12.70;;;-0.90;99.90;;;;;;5034613;28;20025;-54
2024/01/19 05:40:04;;;;;;;45.17;11.47;;;-0.90;99.90;;;;;;5034795;28;20045;-53
2024/01/19 05:42:29;;;;;;;38.63;12.40;;;-0.90;99.90;;;;;;5034085;28;20049;-50
2024/01/19 05:44:55;;;;;;;38.93;11.47;;;-0.90;99.90;;;;;;5034273;28;20025;-51
2024/01/19 05:47:21;;;;;;;38.83;11.97;;;-0.80;99.90;;;;;;5034541;28;20424;-53
2024/01/19 05:49:47;;;;;;;47.27;12.97;;;-0.80;99.90;;;;;;5034573;28;20033;-53
2024/01/19 05:52:12;;;;;;;41.30;11.97;;;-0.80;99.90;;;;;;5034080;28;20482;-50
2024/01/19 05:54:39;;;;;;;42.17;13.10;;;-0.70;99.90;;;;;;5034733;28;20029;-55
2024/01/19 05:57:04;;;;;;;41.43;12.27;;;-0.80;99.90;;;;;;5033341;28;20047;-53
2024/01/19 05:59:30;;;;;;;38.87;10.13;;;-0.60;99.90;;;;;;5033659;28;20025;-54
2024/01/19 06:01:56;;;;;;;46.73;12.60;;;-0.60;99.90;;;;;;5034375;28;20538;-53
2024/01/19 06:04:22;;;;;;;34.37;11.40;;;-0.60;99.90;;;;;;5034451;28;20022;-54
2024/01/19 06:06:47;;;;;;;38.47;9.33;;;-0.60;99.90;;;;;;5034278;28;20070;-53
2024/01/19 06:09:13;;;;;;;38.80;11.77;;;-0.60;99.90;;;;;;5034722;28;20041;-51
2024/01/19 06:11:39;;;;;;;35.60;11.80;;;-0.60;99.90;;;;;;5034423;28;20075;-50
2024/01/19 06:14:05;;;;;;;36.27;10.97;;;-0.60;99.90;;;;;;5034460;28;20125;-52
2024/01/19 06:16:30;;;;;;;35.80;10.80;;;-0.60;99.90;;;;;;5034247;28;20056;-52
2024/01/19 06:18:58;;;;;;;37.83;11.80;;;-0.60;99.90;;;;;;5034871;28;20049;-49
2024/01/19 06:21:24;;;;;;;32.27;10.60;;;-0.60;99.90;;;;;;5034860;28;20037;-54
2024/01/19 06:23:50;;;;;;;37.53;11.83;;;-0.60;99.90;;;;;;5034805;28;20084;-53
2024/01/19 06:26:16;;;;;;;38.97;10.27;;;-0.50;99.90;;;;;;5037117;28;20021;-53
2024/01/19 06:28:42;;;;;;;37.73;11.37;;;-0.60;99.90;;;;;;5038242;28;20026;-52
2024/01/19 06:31:10;;;;;;;36.07;11.37;;;-0.60;99.90;;;;;;5038153;28;20601;-50
2024/01/19 06:33:39;;;;;;;35.73;11.20;;;-0.50;99.90;;;;;;5038334;28;20056;-53
2024/01/19 06:36:10;;;;;;;33.70;10.75;;;-0.50;99.90;;;;;;5037321;28;20064;-50
2024/01/19 06:38:36;;;;;;;28.00;10.60;;;-0.50;99.90;;;;;;5037949;28;20041;-52
2024/01/19 06:41:05;;;;;;;38.70;10.80;;;-0.50;99.90;;;;;;5037829;28;20040;-52
2024/01/19 06:43:31;;;;;;;24.27;8.23;;;-0.50;99.90;;;;;;5037754;28;20116;-50
2024/01/19 06:45:57;;;;;;;32.70;11.53;;;-0.50;99.90;;;;;;5038154;28;20049;-50
2024/01/19 06:48:22;;;;;;;27.73;11.23;;;-0.50;99.90;;;;;;5038433;28;20025;-55
2024/01/19 06:50:48;;;;;;;34.63;12.20;;;-0.50;99.90;;;;;;5037580;28;20505;-54
2024/01/19 06:53:14;;;;;;;35.43;11.87;;;-0.50;99.90;;;;;;5037689;28;20033;-55
2024/01/19 06:55:39;;;;;;;34.80;11.30;;;-0.40;99.90;;;;;;5037390;28;20034;-50
2024/01/19 06:58:05;;;;;;;34.43;11.30;;;-0.40;99.90;;;;;;5036226;28;20033;-55
2024/01/19 07:00:30;;;;;;;33.10;10.87;;;-0.30;99.90;;;;;;5037598;28;20060;-55
2024/01/19 07:02:56;;;;;;;35.77;11.17;;;-0.40;99.90;;;;;;5037786;28;20036;-52
2024/01/19 07:05:21;;;;;;;31.33;11.03;;;-0.40;99.90;;;;;;5036636;28;20032;-52
2024/01/19 07:07:47;;;;;;;31.30;11.53;;;-0.40;99.90;;;;;;5037607;28;20103;-53
2024/01/19 07:10:13;;;;;;;33.57;11.67;;;-0.40;99.90;;;;;;5037588;28;20029;-54
2024/01/19 07:12:38;;;;;;;29.90;10.30;;;-0.40;99.90;;;;;;5036996;28;20037;-51
2024/01/19 07:15:06;;;;;;;34.40;11.30;;;-0.40;99.90;;;;;;5037442;28;20037;-50
2024/01/19 07:17:31;;;;;;;29.93;10.93;;;-0.50;99.90;;;;;;5036426;28;20062;-51
2024/01/19 07:19:59;;;;;;;30.53;9.63;;;-0.50;99.90;;;;;;5036335;28;20030;-55
2024/01/19 07:22:27;;;;;;;46.00;11.17;;;-0.40;99.90;;;;;;5037013;28;20080;-55
2024/01/19 07:24:53;;;;;;;27.70;11.37;;;-0.40;99.90;;;;;;5037089;28;20159;-53
2024/01/19 07:27:18;;;;;;;31.40;10.07;;;-0.40;99.90;;;;;;5037236;28;20037;-55
2024/01/19 07:29:44;;;;;;;31.07;10.93;;;-0.40;99.90;;;;;;5037490;28;20053;-55
2024/01/19 07:32:09;;;;;;;29.50;10.33;;;-0.40;99.90;;;;;;5036984;28;20036;-54
2024/01/19 07:34:35;;;;;;;27.40;10.10;;;-0.50;99.90;;;;;;5036980;28;20026;-54
2024/01/19 07:37:01;;;;;;;26.53;10.07;;;-0.50;99.90;;;;;;5037595;28;20478;-54
2024/01/19 07:39:26;;;;;;;30.90;10.33;;;-0.50;99.90;;;;;;5037219;28;20040;-55
2024/01/19 07:41:52;;;;;;;28.53;9.70;;;-0.60;99.90;;;;;;5036907;28;20072;-53
2024/01/19 07:44:18;;;;;;;24.80;9.30;;;-0.60;99.90;;;;;;5036917;28;20017;-53
2024/01/19 07:46:44;;;;;;;30.53;10.83;;;-0.50;99.90;;;;;;5036132;28;20123;-52
2024/01/19 07:49:10;;;;;;;31.00;10.10;;;-0.50;99.90;;;;;;5037096;28;20060;-51
2024/01/19 07:51:36;;;;;;;27.70;10.67;;;-0.50;99.90;;;;;;5036940;28;20446;-54
2024/01/19 07:54:02;;;;;;;27.20;10.50;;;-0.50;99.90;;;;;;5036181;28;20037;-55
2024/01/19 07:56:28;;;;;;;30.43;10.23;;;-0.50;99.90;;;;;;5036608;28;20083;-54
2024/01/19 07:58:53;;;;;;;32.33;10.77;;;-0.50;99.90;;;;;;5036520;28;20044;-54
2024/01/19 08:01:19;;;;;;;27.70;9.80;;;-0.50;99.90;;;;;;5036217;28;20034;-49
2024/01/19 08:03:44;;;;;;;36.10;10.97;;;-0.50;99.90;;;;;;5036985;28;20466;-54
2024/01/19 08:06:11;;;;;;;26.43;8.83;;;-0.50;99.90;;;;;;5036327;28;20037;-54
2024/01/19 08:08:36;;;;;;;27.80;9.77;;;-0.50;99.90;;;;;;5037177;28;20029;-51
2024/01/19 08:11:02;;;;;;;30.13;10.47;;;-0.40;99.90;;;;;;5036767;28;20041;-54
2024/01/19 08:13:28;;;;;;;30.63;11.13;;;-0.50;99.90;;;;;;5036588;28;20072;-54
2024/01/19 08:15:53;;;;;;;31.37;11.23;;;-0.50;99.90;;;;;;5036634;28;20513;-50
2024/01/19 08:18:19;;;;;;;25.43;10.07;;;-0.50;99.90;;;;;;5037498;28;20025;-51
2024/01/19 08:20:45;;;;;;;27.70;10.03;;;-0.50;99.90;;;;;;5036274;28;20139;-51
2024/01/19 08:23:10;;;;;;;22.23;9.43;;;-0.50;99.90;;;;;;5035917;28;20079;-54
2024/01/19 08:25:36;;;;;;;27.77;10.70;;;-0.40;99.90;;;;;;5036472;28;20387;-54
2024/01/19 08:28:01;;;;;;;19.37;8.67;;;-0.40;99.90;;;;;;5036511;28;20037;-50
2024/01/19 08:30:27;;;;;;;26.43;10.10;;;-0.40;99.90;;;;;;5034821;28;20045;-53
2024/01/19 08:32:53;;;;;;;25.43;8.40;;;-0.30;99.90;;;;;;5035899;28;20532;-53
2024/01/19 08:35:18;;;;;;;21.53;8.70;;;-0.40;99.90;;;;;;5035582;28;20025;-54
2024/01/19 08:37:44;;;;;;;24.13;8.67;;;-0.40;99.90;;;;;;5035680;28;20041;-54
2024/01/19 08:40:13;;;;;;;25.83;9.53;;;-0.40;99.90;;;;;;5034263;28;20525;-55
2024/01/19 08:42:39;;;;;;;24.90;8.82;;;-0.50;99.90;;;;;;5035556;28;20057;-55
2024/01/19 08:45:06;;;;;;;21.60;8.73;;;-0.50;99.90;;;;;;5036378;28;20029;-54
2024/01/19 08:47:32;;;;;;;26.00;8.80;;;-0.40;99.90;;;;;;5035506;28;20026;-56
2024/01/19 08:49:59;;;;;;;25.87;9.43;;;-0.40;99.90;;;;;;5035418;28;20037;-55
2024/01/19 08:52:27;;;;;;;27.27;9.73;;;-0.40;99.90;;;;;;5035308;28;20037;-56
2024/01/19 08:54:53;;;;;;;27.03;9.30;;;-0.40;99.90;;;;;;5035894;28;20040;-53
2024/01/19 08:57:18;;;;;;;22.77;8.73;;;-0.30;99.90;;;;;;5034113;28;20088;-53
2024/01/19 08:59:45;;;;;;;22.93;9.70;;;-0.30;99.90;;;;;;5034346;28;20029;-53
2024/01/19 09:02:11;;;;;;;28.60;10.43;;;-0.30;99.90;;;;;;5035349;28;20408;-53
2024/01/19 09:04:38;;;;;;;26.37;9.93;;;-0.30;99.90;;;;;;5035194;28;20110;-53
2024/01/19 09:07:04;;;;;;;26.87;8.73;;;-0.30;99.90;;;;;;5035381;28;20038;-54
2024/01/19 09:09:29;;;;;;;25.33;10.57;;;-0.30;99.90;;;;;;5035655;28;20132;-50
2024/01/19 09:11:56;;;;;;;28.33;10.87;;;-0.20;99.90;;;;;;5035649;28;20029;-54
2024/01/19 09:14:22;;;;;;;27.13;10.33;;;-0.20;99.90;;;;;;5035581;28;20391;-55
2024/01/19 09:16:48;;;;;;;28.50;10.57;;;-0.20;99.90;;;;;;5035592;28;20028;-55
2024/01/19 09:19:13;;;;;;;26.20;10.50;;;-0.20;99.90;;;;;;5035059;28;20162;-54
2024/01/19 09:21:44;;;;;;;28.47;10.43;;;-0.20;99.90;;;;;;5034643;28;20033;-55
2024/01/19 09:24:10;;;;;;;26.83;10.60;;;-0.20;99.90;;;;;;5035058;28;20049;-54
2024/01/19 09:26:35;;;;;;;28.80;10.10;;;-0.20;99.90;;;;;;5035354;28;20477;-55
2024/01/19 09:29:01;;;;;;;34.07;12.43;;;-0.30;99.90;;;;;;5034924;28;20064;-55
2024/01/19 09:31:27;;;;;;;33.70;10.70;;;-0.10;99.90;;;;;;5035263;28;20057;-55
2024/01/19 09:33:52;;;;;;;23.90;9.63;;;-0.10;99.90;;;;;;5034818;28;20036;-52
2024/01/19 09:36:18;;;;;;;27.17;10.67;;;-0.10;99.90;;;;;;5035617;28;20033;-55
2024/01/19 09:38:43;;;;;;;26.93;10.63;;;0.00;99.90;;;;;;5034638;28;20083;-54
2024/01/19 09:41:19;;;;;;;28.43;10.83;;;0.00;99.90;;;;;;5034938;28;20033;-55
2024/01/19 09:43:47;;;;;;;29.27;11.43;;;0.00;99.90;;;;;;5034638;28;20033;-55
2024/01/19 09:46:21;;;;;;;27.97;11.13;;;0.00;99.90;;;;;;5034802;28;20098;-55
2024/01/19 09:49:25;;;;;;;31.90;13.03;;;0.10;99.90;;;;;;5034568;28;20029;-55
2024/01/19 09:52:02;;;;;;;28.13;10.10;;;0.10;99.90;;;;;;5034302;28;20029;-55
2024/01/19 09:54:33;;;;;;;32.73;11.77;;;0.30;99.90;;;;;;5035069;28;20544;-54
2024/01/19 09:57:00;;;;;;;30.20;11.50;;;0.30;99.90;;;;;;5033604;28;20041;-54
2024/01/19 09:59:32;;;;;;;34.23;11.73;;;0.40;99.90;;;;;;5034077;28;20026;-51
2024/01/19 10:01:59;;;;;;;22.60;9.90;;;0.40;99.90;;;;;;5034725;28;20052;-54
2024/01/19 10:04:26;;;;;;;30.83;10.33;;;0.40;99.90;;;;;;5034623;28;20075;-55
2024/01/19 10:06:52;;;;;;;25.43;10.20;;;0.50;99.90;;;;;;5035036;28;20064;-55
2024/01/19 10:09:19;;;;;;;19.80;9.73;;;0.50;99.90;;;;;;5035547;28;20363;-55
2024/01/19 10:11:51;;;;;;;27.77;11.40;;;0.50;99.90;;;;;;5034637;28;20036;-55
2024/01/19 10:14:18;;;;;;;28.50;11.17;;;0.50;99.90;;;;;;5033261;28;20064;-55
2024/01/19 10:16:43;;;;;;;26.20;10.27;;;0.50;99.90;;;;;;5034466;28;20025;-53
2024/01/19 10:19:13;;;;;;;29.53;10.80;;;0.70;99.90;;;;;;5034554;28;20394;-55
2024/01/19 10:21:39;;;;;;;32.67;10.50;;;0.80;99.90;;;;;;5033190;28;20080;-55
2024/01/19 10:24:15;;;;;;;28.57;10.70;;;0.80;99.90;;;;;;5034587;28;20039;-55
2024/01/19 10:26:42;;;;;;;31.23;10.27;;;0.80;99.90;;;;;;5034139;28;20039;-55
2024/01/19 10:29:15;;;;;;;29.40;10.30;;;0.70;99.90;;;;;;5034333;28;20034;-54
2024/01/19 10:31:44;;;;;;;26.53;9.83;;;0.50;99.90;;;;;;5034731;28;20069;-55
2024/01/19 10:34:19;;;;;;;29.73;10.90;;;0.60;99.90;;;;;;5034158;28;20037;-53
2024/01/19 10:36:45;;;;;;;28.60;11.27;;;0.50;99.90;;;;;;5034526;28;20445;-51
2024/01/19 10:39:23;;;;;;;27.70;10.93;;;0.40;99.90;;;;;;5034222;28;20120;-51
2024/01/19 10:41:51;;;;;;;31.53;11.90;;;0.40;99.90;;;;;;5034185;28;20032;-54
2024/01/19 10:44:20;;;;;;;31.30;12.60;;;0.50;99.90;;;;;;5035526;28;20352;-55
2024/01/19 10:46:46;;;;;;;21.00;9.00;;;0.40;99.90;;;;;;5034736;28;20466;-50
2024/01/19 10:49:15;;;;;;;35.47;12.40;;;0.50;99.90;;;;;;5033995;28;20548;-50
2024/01/19 10:51:43;;;;;;;30.35;11.68;;;0.50;99.90;;;;;;5034523;28;20052;-55
2024/01/19 10:54:15;;;;;;;29.90;11.87;;;0.40;99.90;;;;;;5034464;28;20044;-51
2024/01/19 10:56:42;;;;;;;38.37;13.27;;;0.40;99.90;;;;;;5033821;28;20061;-53
2024/01/19 10:59:12;;;;;;;35.83;13.30;;;0.50;99.90;;;;;;5034397;28;20033;-52
2024/01/19 11:01:38;;;;;;;34.00;11.57;;;0.50;99.90;;;;;;5033820;28;20397;-55
2024/01/19 11:04:08;;;;;;;34.07;12.87;;;0.60;99.90;;;;;;5034088;28;20025;-52
2024/01/19 11:06:37;;;;;;;31.40;12.50;;;0.70;99.90;;;;;;5034193;28;20429;-48
2024/01/19 11:09:06;;;;;;;31.63;11.63;;;0.70;99.90;;;;;;5034379;28;20057;-55
2024/01/19 11:11:55;;;;;;;31.50;12.23;;;0.80;99.90;;;;;;5037679;28;20087;-53
2024/01/19 11:14:27;;;;;;;26.42;9.10;;;0.80;99.90;;;;;;5036483;28;20064;-51
2024/01/19 11:16:54;;;;;;;34.97;11.17;;;0.80;99.90;;;;;;5035871;28;20029;-54
2024/01/19 11:19:21;;;;;;;35.03;13.63;;;0.80;99.90;;;;;;5037508;28;20037;-54
2024/01/19 11:21:47;;;;;;;32.80;12.43;;;1.00;99.90;;;;;;5037495;28;20072;-53
2024/01/19 11:24:15;;;;;;;34.37;12.63;;;0.90;99.90;;;;;;5037388;28;20025;-51
2024/01/19 11:26:59;;;;;;;33.30;11.63;;;1.10;99.90;;;;;;5037633;28;20494;-49
2024/01/19 11:29:40;;;;;;;32.40;11.73;;;1.10;99.90;;;;;;5037402;28;20538;-52
2024/01/19 11:32:07;;;;;;;30.40;11.57;;;1.10;99.90;;;;;;5036916;28;20064;-51
2024/01/19 11:34:49;;;;;;;31.17;11.80;;;1.20;99.90;;;;;;5037605;28;20083;-55
2024/01/19 11:37:43;;;;;;;36.70;10.77;;;1.30;99.90;;;;;;5037354;28;20500;-52
2024/01/19 11:40:09;;;;;;;25.73;9.77;;;1.20;99.90;;;;;;5037101;28;20410;-51
2024/01/19 11:42:44;;;;;;;25.10;9.47;;;1.20;99.90;;;;;;5036885;28;20048;-51
2024/01/19 11:45:26;;;;;;;28.63;10.30;;;1.10;99.90;;;;;;5036621;28;20033;-53
2024/01/19 11:47:52;;;;;;;23.07;8.43;;;1.00;99.90;;;;;;5037440;28;20030;-53
2024/01/19 11:50:44;;;;;;;24.53;9.17;;;1.10;99.90;;;;;;5037114;28;20033;-50
2024/01/19 11:53:14;;;;;;;28.93;10.40;;;1.00;99.90;;;;;;5036202;28;20056;-50
2024/01/19 11:55:42;;;;;;;21.13;9.37;;;1.00;99.90;;;;;;5036811;28;20490;-50
2024/01/19 11:58:30;;;;;;;25.20;9.13;;;1.10;99.90;;;;;;5036889;28;20172;-53
2024/01/19 12:00:58;;;;;;;25.10;9.80;;;1.20;99.90;;;;;;5035931;28;20037;-54
2024/01/19 12:03:24;;;;;;;28.40;10.17;;;1.20;99.90;;;;;;5036641;28;20147;-54
2024/01/19 12:05:53;;;;;;;24.40;8.93;;;1.20;99.90;;;;;;5036727;28;20061;-54
2024/01/19 12:08:18;;;;;;;21.93;8.30;;;1.20;99.90;;;;;;5036657;28;20022;-54
2024/01/19 12:10:44;;;;;;;26.10;9.10;;;1.10;99.90;;;;;;5036554;28;20040;-55
2024/01/19 12:13:10;;;;;;;23.40;7.40;;;1.10;99.90;;;;;;5036568;28;20029;-52
2024/01/19 12:15:37;;;;;;;26.40;9.40;;;1.00;99.90;;;;;;5036779;28;20025;-50
2024/01/19 12:18:04;;;;;;;26.40;9.10;;;1.00;99.90;;;;;;5036651;28;20018;-52
2024/01/19 12:20:30;;;;;;;22.47;9.03;;;1.10;99.90;;;;;;5036104;28;20037;-51
2024/01/19 12:22:56;;;;;;;25.00;9.07;;;1.10;99.90;;;;;;5035486;28;20055;-53
2024/01/19 12:25:24;;;;;;;20.67;7.30;;;1.30;99.90;;;;;;5036056;28;20036;-53
2024/01/19 12:28:00;;;;;;;26.67;9.23;;;1.30;99.90;;;;;;5034938;28;20033;-50
2024/01/19 12:30:39;;;;;;;29.30;9.33;;;1.30;99.90;;;;;;5032420;28;20036;-55